Time,TemperatureF,DewpointF,PressureIn,WindDirection,WindDirectionDegrees,WindSpeedMPH,WindSpeedGustMPH,Humidity,HourlyPrecipIn,Conditions,Clouds,dailyrainin,SoftwareType,DateUTC
2013-09-30 00:04:00,45.5,45.0,30.12,NNE,22,0.0,-999.0,98,-99.99,,,0.00,Acu-Link.com,2013-09-30 04:04:00,
2013-09-30 00:20:00,45.0,44.5,30.12,NW,315,0.0,-999.0,98,-99.99,,,0.00,Acu-Link.com,2013-09-30 04:20:00,
2013-09-30 00:35:00,44.8,44.3,30.12,NNE,22,0.0,-999.0,98,-99.99,,,0.00,Acu-Link.com,2013-09-30 04:35:00,
2013-09-30 00:50:00,44.2,43.7,30.11,NNE,22,0.0,-999.0,98,-99.99,,,0.00,Acu-Link.com,2013-09-30 04:50:00,
2013-09-30 01:05:00,43.7,43.2,30.11,ENE,67,0.0,-999.0,98,-99.99,,,0.00,Acu-Link.com,2013-09-30 05:05:00,
2013-09-30 01:21:00,43.3,42.8,30.11,NE,45,0.0,-999.0,98,-99.99,,,0.00,Acu-Link.com,2013-09-30 05:21:00,
2013-09-30 01:36:00,43.0,42.5,30.11,ENE,67,0.0,-999.0,98,-99.99,,,0.00,Acu-Link.com,2013-09-30 05:36:00,
2013-09-30 01:51:00,42.4,41.9,30.11,East,90,0.0,-999.0,98,-99.99,,,0.00,Acu-Link.com,2013-09-30 05:51:00,
2013-09-30 02:06:00,42.1,41.6,30.10,NE,45,0.0,-999.0,98,-99.99,,,0.00,Acu-Link.com,2013-09-30 06:06:00,
2013-09-30 02:22:00,41.9,41.4,30.10,ENE,67,0.0,-999.0,98,-99.99,,,0.00,Acu-Link.com,2013-09-30 06:22:00,
2013-09-30 02:37:00,41.4,40.9,30.10,NE,45,0.0,-999.0,98,-99.99,,,0.00,Acu-Link.com,2013-09-30 06:37:00,
2013-09-30 02:52:00,41.2,40.7,30.09,NE,45,0.0,-999.0,98,-99.99,,,0.00,Acu-Link.com,2013-09-30 06:52:00,
2013-09-30 03:07:00,40.8,40.3,30.10,ESE,112,0.0,-999.0,98,-99.99,,,0.00,Acu-Link.com,2013-09-30 07:07:00,
2013-09-30 03:23:00,40.6,40.1,30.09,ENE,67,0.0,-999.0,98,-99.99,,,0.00,Acu-Link.com,2013-09-30 07:23:00,
2013-09-30 03:38:00,40.3,39.8,30.09,NNE,22,0.0,-999.0,98,-99.99,,,0.00,Acu-Link.com,2013-09-30 07:38:00,
2013-09-30 03:53:00,40.1,39.6,30.09,ESE,112,0.0,-999.0,98,-99.99,,,0.00,Acu-Link.com,2013-09-30 07:53:00,
2013-09-30 04:10:00,39.9,39.4,30.09,NE,45,0.0,-999.0,98,-99.99,,,0.00,Acu-Link.com,2013-09-30 08:10:00,
2013-09-30 04:25:00,39.7,39.2,30.09,ENE,67,0.0,-999.0,98,-99.99,,,0.00,Acu-Link.com,2013-09-30 08:25:00,
2013-09-30 04:40:00,39.4,38.9,30.09,SE,135,0.0,-999.0,98,-99.99,,,0.00,Acu-Link.com,2013-09-30 08:40:00,
2013-09-30 04:55:00,39.4,38.9,30.09,NW,315,0.0,-999.0,98,-99.99,,,0.00,Acu-Link.com,2013-09-30 08:55:00,
2013-09-30 05:11:00,39.2,38.7,30.09,ESE,112,0.0,-999.0,98,-99.99,,,0.00,Acu-Link.com,2013-09-30 09:11:00,
2013-09-30 05:27:00,39.2,38.7,30.09,North,0,0.0,-999.0,98,-99.99,,,0.00,Acu-Link.com,2013-09-30 09:27:00,
2013-09-30 05:42:00,39.2,38.7,30.09,NNE,22,0.0,-999.0,98,-99.99,,,0.00,Acu-Link.com,2013-09-30 09:42:00,
2013-09-30 05:59:00,39.0,38.5,30.10,NE,45,0.0,-999.0,98,-99.99,,,0.00,Acu-Link.com,2013-09-30 09:59:00,
2013-09-30 06:14:00,39.0,38.5,30.10,NE,45,0.0,-999.0,98,-99.99,,,0.00,Acu-Link.com,2013-09-30 10:14:00,
2013-09-30 06:29:00,38.7,38.2,30.10,East,90,0.0,-999.0,98,-99.99,,,0.00,Acu-Link.com,2013-09-30 10:29:00,
2013-09-30 06:45:00,38.5,38.0,30.10,SE,135,0.0,-999.0,98,-99.99,,,0.00,Acu-Link.com,2013-09-30 10:45:00,
2013-09-30 07:00:00,38.5,38.0,30.09,NE,45,0.0,-999.0,98,-99.99,,,0.00,Acu-Link.com,2013-09-30 11:00:00,
2013-09-30 07:16:00,38.3,37.8,30.09,East,90,0.0,-999.0,98,-99.99,,,0.00,Acu-Link.com,2013-09-30 11:16:00,
2013-09-30 07:31:00,38.1,37.6,30.10,NE,45,0.0,-999.0,98,-99.99,,,0.00,Acu-Link.com,2013-09-30 11:31:00,
2013-09-30 07:46:00,37.9,37.4,30.10,West,270,0.0,-999.0,98,-99.99,,,0.00,Acu-Link.com,2013-09-30 11:46:00,
2013-09-30 08:01:00,40.3,39.8,30.10,ESE,112,0.0,-999.0,98,-99.99,,,0.00,Acu-Link.com,2013-09-30 12:01:00,
2013-09-30 08:17:00,41.4,40.9,30.10,NNW,337,1.1,-999.0,98,-99.99,,,0.00,Acu-Link.com,2013-09-30 12:17:00,
2013-09-30 08:32:00,43.0,42.5,30.10,North,0,1.7,-999.0,98,-99.99,,,0.00,Acu-Link.com,2013-09-30 12:32:00,
2013-09-30 08:47:00,45.3,44.8,30.10,NNE,22,2.2,-999.0,98,-99.99,,,0.00,Acu-Link.com,2013-09-30 12:47:00,
2013-09-30 09:03:00,47.7,47.2,30.11,SSE,157,0.0,-999.0,98,-99.99,,,0.00,Acu-Link.com,2013-09-30 13:03:00,
2013-09-30 09:18:00,49.1,48.6,30.11,WNW,292,0.0,-999.0,98,-99.99,,,0.00,Acu-Link.com,2013-09-30 13:18:00,
2013-09-30 09:33:00,50.9,50.4,30.09,NNW,337,0.0,-999.0,98,-99.99,,,0.00,Acu-Link.com,2013-09-30 13:33:00,
2013-09-30 09:49:00,54.0,52.3,30.10,NE,45,1.7,-999.0,94,-99.99,,,0.00,Acu-Link.com,2013-09-30 13:49:00,
2013-09-30 10:04:00,55.2,51.7,30.09,ENE,67,1.1,-999.0,88,-99.99,,,0.00,Acu-Link.com,2013-09-30 14:04:00,
2013-09-30 10:19:00,57.0,52.2,30.09,North,0,2.7,-999.0,84,-99.99,,,0.00,Acu-Link.com,2013-09-30 14:19:00,
2013-09-30 10:35:00,58.1,52.6,30.08,SW,225,0.0,-999.0,82,-99.99,,,0.00,Acu-Link.com,2013-09-30 14:35:00,
2013-09-30 10:50:00,59.5,53.7,30.07,SW,225,2.2,-999.0,81,-99.99,,,0.00,Acu-Link.com,2013-09-30 14:50:00,
2013-09-30 11:05:00,61.0,54.4,30.07,WNW,292,1.1,-999.0,79,-99.99,,,0.00,Acu-Link.com,2013-09-30 15:05:00,
2013-09-30 11:20:00,62.8,55.8,30.06,SSW,202,0.0,-999.0,78,-99.99,,,0.00,Acu-Link.com,2013-09-30 15:20:00,
2013-09-30 11:35:00,64.8,55.9,30.06,North,0,0.0,-999.0,73,-99.99,,,0.00,Acu-Link.com,2013-09-30 15:35:00,
2013-09-30 11:51:00,66.2,53.7,30.06,SSE,157,1.7,-999.0,64,-99.99,,,0.00,Acu-Link.com,2013-09-30 15:51:00,
2013-09-30 12:06:00,68.7,53.8,30.05,NNE,22,0.0,-999.0,59,-99.99,,,0.00,Acu-Link.com,2013-09-30 16:06:00,
2013-09-30 12:21:00,69.6,52.2,30.04,ESE,112,2.2,-999.0,54,-99.99,,,0.00,Acu-Link.com,2013-09-30 16:21:00,
2013-09-30 12:37:00,68.2,51.9,30.04,SE,135,0.0,-999.0,56,-99.99,,,0.00,Acu-Link.com,2013-09-30 16:37:00,
2013-09-30 12:52:00,68.9,52.1,30.03,ESE,112,1.7,-999.0,55,-99.99,,,0.00,Acu-Link.com,2013-09-30 16:52:00,
2013-09-30 13:08:00,68.5,51.7,30.03,SSE,157,1.7,-999.0,55,-99.99,,,0.00,Acu-Link.com,2013-09-30 17:08:00,
2013-09-30 13:23:00,68.5,52.2,30.02,South,180,2.2,-999.0,56,-99.99,,,0.00,Acu-Link.com,2013-09-30 17:23:00,
2013-09-30 13:38:00,69.1,52.7,30.02,NNW,337,1.1,-999.0,56,-99.99,,,0.00,Acu-Link.com,2013-09-30 17:38:00,
2013-09-30 13:53:00,67.8,51.5,30.02,NNW,337,3.7,-999.0,56,-99.99,,,0.00,Acu-Link.com,2013-09-30 17:53:00,
2013-09-30 14:09:00,69.6,53.2,30.01,NW,315,0.0,-999.0,56,-99.99,,,0.00,Acu-Link.com,2013-09-30 18:09:00,
2013-09-30 14:24:00,69.1,52.2,30.00,ESE,112,2.7,-999.0,55,-99.99,,,0.00,Acu-Link.com,2013-09-30 18:24:00,
2013-09-30 14:39:00,69.6,51.2,30.00,South,180,1.7,-999.0,52,-99.99,,,0.00,Acu-Link.com,2013-09-30 18:39:00,
2013-09-30 14:54:00,71.1,53.1,29.99,East,90,1.1,-999.0,53,-99.99,,,0.00,Acu-Link.com,2013-09-30 18:54:00,
2013-09-30 15:10:00,72.0,53.9,29.98,SSW,202,0.0,-999.0,53,-99.99,,,0.00,Acu-Link.com,2013-09-30 19:10:00,
2013-09-30 15:25:00,70.7,52.7,29.98,NNE,22,0.0,-999.0,53,-99.99,,,0.00,Acu-Link.com,2013-09-30 19:25:00,
2013-09-30 15:40:00,71.4,52.3,29.98,SE,135,0.0,-999.0,51,-99.99,,,0.00,Acu-Link.com,2013-09-30 19:40:00,
2013-09-30 15:55:00,71.6,54.6,29.98,East,90,0.0,-999.0,55,-99.99,,,0.00,Acu-Link.com,2013-09-30 19:55:00,
2013-09-30 16:11:00,71.8,54.2,29.98,SE,135,0.0,-999.0,54,-99.99,,,0.00,Acu-Link.com,2013-09-30 20:11:00,
2013-09-30 16:26:00,69.4,54.4,29.97,SW,225,0.0,-999.0,59,-99.99,,,0.00,Acu-Link.com,2013-09-30 20:26:00,
2013-09-30 16:41:00,67.6,54.5,29.97,South,180,0.0,-999.0,63,-99.99,,,0.00,Acu-Link.com,2013-09-30 20:41:00,
2013-09-30 16:56:00,66.2,53.7,29.97,South,180,1.1,-999.0,64,-99.99,,,0.00,Acu-Link.com,2013-09-30 20:56:00,
2013-09-30 17:12:00,64.4,53.6,29.96,SSE,157,1.7,-999.0,68,-99.99,,,0.00,Acu-Link.com,2013-09-30 21:12:00,
2013-09-30 17:27:00,63.5,53.1,29.97,West,270,0.0,-999.0,69,-99.99,,,0.00,Acu-Link.com,2013-09-30 21:27:00,
2013-09-30 17:42:00,63.3,52.6,29.97,West,270,1.7,-999.0,68,-99.99,,,0.00,Acu-Link.com,2013-09-30 21:42:00,
2013-09-30 17:58:00,62.4,52.9,29.97,South,180,1.7,-999.0,71,-99.99,,,0.00,Acu-Link.com,2013-09-30 21:58:00,
2013-09-30 18:13:00,61.2,52.8,29.97,SSW,202,1.7,-999.0,74,-99.99,,,0.00,Acu-Link.com,2013-09-30 22:13:00,
2013-09-30 18:28:00,60.3,52.7,29.98,SSW,202,0.0,-999.0,76,-99.99,,,0.00,Acu-Link.com,2013-09-30 22:28:00,
2013-09-30 18:44:00,59.0,51.8,29.98,ENE,67,0.0,-999.0,77,-99.99,,,0.00,Acu-Link.com,2013-09-30 22:44:00,
2013-09-30 18:59:00,57.9,51.4,29.98,ESE,112,0.0,-999.0,79,-99.99,,,0.00,Acu-Link.com,2013-09-30 22:59:00,
2013-09-30 19:14:00,56.7,51.3,29.98,NNE,22,0.0,-999.0,82,-99.99,,,0.00,Acu-Link.com,2013-09-30 23:14:00,
2013-09-30 19:29:00,55.8,51.4,29.98,SSW,202,0.0,-999.0,85,-99.99,,,0.00,Acu-Link.com,2013-09-30 23:29:00,
2013-09-30 19:45:00,55.2,51.4,29.99,SW,225,0.0,-999.0,87,-99.99,,,0.00,Acu-Link.com,2013-09-30 23:45:00,
2013-09-30 20:00:00,54.7,51.2,29.99,SSW,202,0.0,-999.0,88,-99.99,,,0.00,Acu-Link.com,2013-10-01 00:00:00,
2013-09-30 20:15:00,54.0,51.1,29.99,SE,135,0.0,-999.0,90,-99.99,,,0.00,Acu-Link.com,2013-10-01 00:15:00,
2013-09-30 20:30:00,53.2,50.6,30.00,ESE,112,0.0,-999.0,91,-99.99,,,0.00,Acu-Link.com,2013-10-01 00:30:00,
2013-09-30 20:46:00,52.3,50.0,30.00,ENE,67,0.0,-999.0,92,-99.99,,,0.00,Acu-Link.com,2013-10-01 00:46:00,
2013-09-30 21:01:00,51.4,49.4,29.99,NNE,22,0.0,-999.0,93,-99.99,,,0.00,Acu-Link.com,2013-10-01 01:01:00,
2013-09-30 21:16:00,50.5,48.8,29.99,East,90,0.0,-999.0,94,-99.99,,,0.00,Acu-Link.com,2013-10-01 01:16:00,
2013-09-30 21:32:00,50.0,49.2,29.99,ESE,112,0.0,-999.0,97,-99.99,,,0.00,Acu-Link.com,2013-10-01 01:32:00,
2013-09-30 21:47:00,49.5,48.7,29.99,SSE,157,0.0,-999.0,97,-99.99,,,0.00,Acu-Link.com,2013-10-01 01:47:00,
2013-09-30 22:02:00,49.3,48.8,29.99,SSW,202,0.0,-999.0,98,-99.99,,,0.00,Acu-Link.com,2013-10-01 02:02:00,
2013-09-30 22:17:00,48.7,48.2,29.99,NNE,22,0.0,-999.0,98,-99.99,,,0.00,Acu-Link.com,2013-10-01 02:17:00,
2013-09-30 22:33:00,48.2,47.7,29.99,East,90,0.0,-999.0,98,-99.99,,,0.00,Acu-Link.com,2013-10-01 02:33:00,
2013-09-30 22:49:00,47.7,47.2,29.99,South,180,0.0,-999.0,98,-99.99,,,0.00,Acu-Link.com,2013-10-01 02:49:00,
2013-09-30 23:04:00,47.3,46.8,29.99,ESE,112,0.0,-999.0,98,-99.99,,,0.00,Acu-Link.com,2013-10-01 03:04:00,
2013-09-30 23:19:00,47.3,46.8,29.98,ESE,112,0.0,-999.0,98,-99.99,,,0.00,Acu-Link.com,2013-10-01 03:19:00,
2013-09-30 23:35:00,46.6,46.1,29.98,East,90,0.0,-999.0,98,-99.99,,,0.00,Acu-Link.com,2013-10-01 03:35:00,
2013-09-30 23:50:00,46.2,45.7,29.99,NNE,22,0.0,-999.0,98,-99.99,,,0.00,Acu-Link.com,2013-10-01 03:50:00,